createdAt,value
2018-05-31T00:00:06.773Z,72.46
2018-05-31T00:02:35.200Z,72.10
2018-05-31T00:05:03.600Z,69.47
2018-05-31T00:07:31.929Z,70.13
2018-05-31T00:10:00.254Z,70.53
2018-05-31T00:12:28.652Z,70.62
2018-05-31T00:14:56.997Z,70.84
2018-05-31T00:17:25.465Z,69.69
2018-05-31T00:19:53.871Z,67.87
2018-05-31T00:22:22.195Z,66.90
2018-05-31T00:24:50.584Z,66.37
2018-05-31T00:27:19.105Z,66.42
2018-05-31T00:29:47.521Z,67.64
2018-05-31T00:32:16.013Z,70.58
2018-05-31T00:34:44.503Z,70.61
2018-05-31T00:37:12.902Z,72.59
2018-05-31T00:39:41.373Z,75.44
2018-05-31T00:42:09.764Z,74.71
2018-05-31T00:44:38.136Z,73.37
2018-05-31T00:47:06.620Z,72.47
2018-05-31T00:49:35.005Z,69.70
2018-05-31T00:52:03.371Z,68.71
2018-05-31T00:54:31.722Z,68.88
2018-05-31T00:57:00.124Z,68.89
2018-05-31T00:59:28.485Z,69.63
2018-05-31T01:01:56.816Z,70.45
2018-05-31T01:04:25.208Z,70.99
2018-05-31T01:06:53.559Z,71.31
2018-05-31T01:09:21.877Z,69.70
2018-05-31T01:11:50.297Z,68.30
2018-05-31T01:14:18.623Z,68.11
2018-05-31T01:16:46.955Z,69.81
2018-05-31T01:19:15.299Z,73.23
2018-05-31T01:21:43.769Z,73.92
2018-05-31T01:24:12.240Z,75.14
2018-05-31T01:26:40.694Z,74.73
2018-05-31T01:29:09.111Z,73.25
2018-05-31T01:31:37.497Z,72.84
2018-05-31T01:34:05.845Z,73.17
2018-05-31T01:36:34.220Z,73.93
2018-05-31T01:39:02.568Z,71.15
2018-05-31T01:41:31.017Z,69.94
2018-05-31T01:43:59.409Z,70.17
2018-05-31T01:46:27.806Z,68.79
2018-05-31T01:48:56.196Z,71.39
2018-05-31T01:51:24.548Z,73.36
2018-05-31T01:53:52.871Z,74.37
2018-05-31T01:56:21.328Z,74.60
2018-05-31T01:58:49.683Z,74.27
2018-05-31T02:01:18.067Z,74.19
2018-05-31T02:03:46.404Z,73.32
2018-05-31T02:06:14.740Z,72.76
2018-05-31T02:08:43.223Z,71.47
2018-05-31T02:11:11.575Z,71.53
2018-05-31T02:13:39.948Z,71.54
2018-05-31T02:16:08.352Z,71.16
2018-05-31T02:18:36.807Z,73.16
2018-05-31T02:21:05.235Z,74.22
2018-05-31T02:23:33.559Z,73.90
2018-05-31T02:26:02.181Z,72.70
2018-05-31T02:28:30.527Z,74.46
2018-05-31T02:30:58.980Z,73.37
2018-05-31T02:33:27.340Z,73.68
2018-05-31T02:35:55.682Z,72.13
2018-05-31T02:38:24.140Z,75.71
2018-05-31T02:40:52.618Z,75.84
2018-05-31T02:43:20.996Z,75.36
2018-05-31T02:45:49.319Z,74.09
2018-05-31T02:48:17.689Z,75.61
2018-05-31T02:50:46.044Z,76.03
2018-05-31T02:53:14.409Z,77.75
2018-05-31T02:55:42.905Z,76.71
2018-05-31T02:58:11.340Z,75.88
2018-05-31T03:00:39.718Z,74.45
2018-05-31T03:03:08.045Z,75.10
2018-05-31T03:05:36.419Z,73.56
2018-05-31T03:08:04.784Z,71.83
2018-05-31T03:10:33.163Z,71.09
2018-05-31T03:13:01.633Z,71.02
2018-05-31T03:15:29.999Z,73.25
2018-05-31T03:17:58.379Z,73.24
2018-05-31T03:20:27.591Z,73.75
2018-05-31T03:22:55.975Z,73.59
2018-05-31T03:25:24.384Z,73.61
2018-05-31T03:27:52.730Z,72.63
2018-05-31T03:30:21.110Z,73.10
2018-05-31T03:32:49.447Z,75.85
2018-05-31T03:35:17.823Z,73.72
2018-05-31T03:37:46.146Z,70.97
2018-05-31T03:40:14.567Z,69.97
2018-05-31T03:42:42.902Z,73.18
2018-05-31T03:45:11.279Z,76.34
2018-05-31T03:47:39.623Z,73.63
2018-05-31T03:50:08.141Z,72.87
2018-05-31T03:52:36.506Z,74.90
2018-05-31T03:55:04.896Z,76.67
2018-05-31T03:57:33.291Z,76.20
2018-05-31T04:00:01.649Z,76.70
2018-05-31T04:02:30.075Z,78.83
2018-05-31T04:04:58.490Z,78.21
2018-05-31T04:07:26.865Z,77.93
2018-05-31T04:09:55.220Z,75.00
2018-05-31T04:12:23.603Z,74.01
2018-05-31T04:14:52.344Z,73.69
2018-05-31T04:17:20.799Z,74.73
2018-05-31T04:19:49.162Z,74.31
2018-05-31T04:22:17.573Z,72.49
2018-05-31T04:24:45.960Z,72.14
2018-05-31T04:27:14.296Z,71.87
2018-05-31T04:29:42.663Z,73.03
2018-05-31T04:32:11.871Z,71.79
2018-05-31T04:34:40.357Z,71.64
2018-05-31T04:37:08.837Z,70.79
2018-05-31T04:39:37.303Z,72.76
2018-05-31T04:42:05.724Z,71.45
2018-05-31T04:44:34.194Z,71.57
2018-05-31T04:47:02.588Z,71.93
2018-05-31T04:49:30.959Z,76.69
2018-05-31T04:51:59.285Z,75.44
2018-05-31T04:54:28.372Z,75.45
2018-05-31T04:56:56.758Z,73.49
2018-05-31T04:59:25.118Z,71.63
2018-05-31T05:01:53.460Z,70.54
2018-05-31T05:04:21.800Z,70.27
2018-05-31T05:06:50.139Z,70.01
2018-05-31T05:09:18.702Z,71.35
2018-05-31T05:11:47.059Z,72.91
2018-05-31T05:14:15.455Z,72.75
2018-05-31T05:16:43.822Z,76.14
2018-05-31T05:19:12.317Z,72.55
2018-05-31T05:21:40.716Z,72.61
2018-05-31T05:24:09.249Z,73.96
2018-05-31T05:26:37.663Z,72.67
2018-05-31T05:29:06.079Z,72.88
2018-05-31T05:31:35.325Z,73.91
2018-05-31T05:34:03.815Z,74.82
2018-05-31T05:36:32.154Z,73.00
2018-05-31T05:39:00.551Z,71.37
2018-05-31T05:41:28.890Z,71.00
2018-05-31T05:43:57.364Z,71.50
2018-05-31T05:46:38.507Z,71.98
2018-05-31T05:49:17.325Z,72.27
2018-05-31T05:51:45.695Z,76.12
2018-05-31T05:54:14.029Z,75.26
2018-05-31T05:56:42.662Z,75.49
2018-05-31T05:59:11.038Z,76.60
2018-05-31T06:01:39.632Z,76.80
2018-05-31T06:04:08.027Z,74.42
2018-05-31T06:06:36.402Z,72.91
2018-05-31T06:09:05.812Z,72.03
2018-05-31T06:11:34.199Z,72.75
2018-05-31T06:14:02.586Z,73.52
2018-05-31T06:16:31.307Z,75.73
2018-05-31T06:18:59.932Z,73.23
2018-05-31T06:21:52.024Z,74.55
2018-05-31T06:24:34.561Z,74.88
2018-05-31T06:27:02.940Z,73.30
2018-05-31T06:29:31.293Z,72.60
2018-05-31T06:31:59.765Z,72.83
2018-05-31T06:34:29.101Z,72.61
2018-05-31T06:36:57.420Z,72.10
2018-05-31T06:39:25.767Z,71.72
2018-05-31T06:41:54.158Z,71.26
2018-05-31T06:44:22.538Z,70.28
2018-05-31T06:46:50.903Z,70.33
2018-05-31T06:49:19.272Z,70.71
2018-05-31T06:51:47.669Z,70.47
2018-05-31T06:54:16.089Z,70.17
2018-05-31T06:56:44.473Z,70.53
2018-05-31T06:59:12.835Z,69.93
2018-05-31T07:01:41.227Z,69.31
2018-05-31T07:04:09.559Z,69.93
2018-05-31T07:06:37.943Z,69.38
2018-05-31T07:09:06.311Z,69.58
2018-05-31T07:11:34.671Z,69.09
2018-05-31T07:14:03.085Z,69.01
2018-05-31T07:16:31.478Z,68.97
2018-05-31T07:18:59.876Z,68.85
2018-05-31T07:21:28.286Z,68.39
2018-05-31T07:23:56.707Z,68.10
2018-05-31T07:26:25.064Z,67.98
2018-05-31T07:28:53.375Z,67.63
2018-05-31T07:31:21.735Z,67.99
2018-05-31T07:33:50.122Z,67.41
2018-05-31T07:36:18.495Z,67.08
2018-05-31T07:38:46.917Z,68.40
2018-05-31T07:41:15.183Z,67.95
2018-05-31T07:43:43.513Z,67.62
2018-05-31T07:46:11.961Z,67.04
2018-05-31T07:48:40.362Z,66.17
2018-05-31T07:51:08.667Z,67.86
2018-05-31T07:53:39.003Z,67.09
2018-05-31T07:56:07.325Z,66.76
2018-05-31T07:58:35.687Z,66.24
2018-05-31T08:01:06.962Z,67.32
2018-05-31T08:03:35.378Z,67.11
2018-05-31T08:06:03.731Z,66.04
2018-05-31T08:08:32.099Z,66.35
2018-05-31T08:11:00.509Z,65.47
2018-05-31T08:13:29.358Z,65.37
2018-05-31T08:15:57.950Z,66.03
2018-05-31T08:18:26.687Z,65.48
2018-05-31T08:20:55.425Z,65.51
2018-05-31T08:23:23.889Z,65.39
2018-05-31T08:25:52.493Z,65.33
2018-05-31T08:28:21.056Z,65.61
2018-05-31T08:30:50.162Z,65.31
2018-05-31T08:33:18.629Z,65.76
2018-05-31T08:35:47.016Z,64.85
2018-05-31T08:38:15.374Z,63.73
2018-05-31T08:40:43.868Z,63.70
2018-05-31T08:43:12.589Z,64.19
2018-05-31T08:45:40.973Z,63.68
2018-05-31T08:48:09.371Z,63.23
2018-05-31T08:50:37.771Z,63.79
2018-05-31T08:53:06.388Z,64.43
2018-05-31T08:55:34.792Z,63.95
2018-05-31T08:58:03.111Z,63.24
2018-05-31T09:00:31.517Z,63.83
2018-05-31T09:02:59.849Z,63.79
2018-05-31T09:05:28.811Z,63.90
2018-05-31T09:07:57.452Z,63.70
2018-05-31T09:10:25.804Z,64.63
2018-05-31T09:12:54.165Z,63.66
2018-05-31T09:15:22.579Z,62.96
2018-05-31T09:17:50.897Z,63.03
2018-05-31T09:20:19.267Z,63.20
2018-05-31T09:22:47.724Z,61.98
2018-05-31T09:25:16.409Z,61.31
2018-05-31T09:27:44.776Z,61.03
2018-05-31T09:30:13.264Z,61.41
2018-05-31T09:32:45.348Z,61.48
2018-05-31T09:35:14.017Z,61.59
2018-05-31T09:37:42.415Z,60.05
2018-05-31T09:40:18.500Z,60.14
2018-05-31T09:42:49.685Z,60.11
2018-05-31T09:45:25.966Z,59.53
2018-05-31T09:47:59.383Z,59.94
2018-05-31T09:50:27.973Z,59.26
2018-05-31T09:52:56.456Z,59.07
2018-05-31T09:55:25.121Z,59.27
2018-05-31T09:57:55.260Z,57.63
2018-05-31T10:00:40.017Z,58.64
2018-05-31T10:03:08.568Z,58.64
2018-05-31T10:05:38.402Z,57.90
2018-05-31T10:08:11.365Z,57.84
2018-05-31T10:10:39.738Z,57.61
2018-05-31T10:13:08.062Z,58.49
2018-05-31T10:15:36.658Z,59.87
2018-05-31T10:18:05.207Z,59.00
2018-05-31T10:20:33.660Z,58.48
2018-05-31T10:23:02.263Z,57.44
2018-05-31T10:25:33.265Z,56.88
2018-05-31T10:28:03.899Z,57.02
2018-05-31T10:30:32.252Z,55.93
2018-05-31T10:33:00.890Z,56.68
2018-05-31T10:35:29.323Z,54.99
2018-05-31T10:38:01.831Z,55.26
2018-05-31T10:40:30.196Z,54.62
2018-05-31T10:42:58.545Z,53.77
2018-05-31T10:45:27.081Z,55.12
2018-05-31T10:47:55.557Z,55.23
2018-05-31T10:50:23.930Z,54.18
2018-05-31T10:55:26.360Z,52.46
2018-05-31T10:57:58.084Z,54.20
2018-05-31T11:00:30.051Z,52.90
2018-05-31T11:02:58.763Z,54.14
2018-05-31T11:05:27.113Z,53.67
2018-05-31T11:08:04.410Z,52.32
2018-05-31T11:10:34.476Z,52.81
2018-05-31T11:13:06.036Z,51.60
2018-05-31T11:16:05.749Z,52.38
2018-05-31T11:18:35.364Z,51.28
2018-05-31T11:21:19.612Z,51.93
2018-05-31T11:23:49.785Z,51.52
2018-05-31T11:26:19.157Z,51.69
2018-05-31T11:28:47.545Z,52.96
2018-05-31T11:31:15.922Z,49.69
2018-05-31T11:33:44.375Z,51.26
2018-05-31T11:36:12.883Z,51.22
2018-05-31T11:38:41.272Z,51.20
2018-05-31T11:41:09.652Z,49.94
2018-05-31T11:43:37.973Z,50.30
2018-05-31T11:46:06.340Z,50.09
2018-05-31T11:48:34.718Z,49.31
2018-05-31T11:51:03.068Z,49.59
2018-05-31T11:53:31.431Z,48.32
2018-05-31T11:55:59.799Z,47.91
2018-05-31T11:58:28.117Z,50.20
2018-05-31T12:00:56.511Z,47.31
2018-05-31T12:03:24.852Z,47.47
2018-05-31T12:05:53.189Z,48.18
2018-05-31T12:08:21.595Z,47.64
2018-05-31T12:10:49.918Z,48.84
2018-05-31T12:13:18.316Z,47.33
2018-05-31T12:15:46.638Z,49.05
2018-05-31T12:18:15.112Z,48.78
2018-05-31T12:20:43.426Z,49.84
2018-05-31T12:23:11.798Z,49.28
2018-05-31T12:25:40.111Z,50.31
2018-05-31T12:28:08.538Z,49.77
2018-05-31T12:30:36.976Z,49.94
2018-05-31T12:33:05.378Z,49.58
2018-05-31T12:35:33.762Z,50.16
2018-05-31T12:38:02.098Z,50.14
2018-05-31T12:40:32.036Z,49.65
2018-05-31T12:43:00.704Z,51.24
2018-05-31T12:45:29.063Z,50.35
2018-05-31T12:47:57.375Z,50.81
2018-05-31T12:50:25.763Z,50.93
2018-05-31T12:52:54.128Z,50.60
2018-05-31T12:55:22.508Z,51.66
2018-05-31T12:57:51.919Z,51.72
2018-05-31T13:00:20.429Z,51.99
2018-05-31T13:02:48.781Z,53.31
2018-05-31T13:05:17.152Z,51.91
2018-05-31T13:07:45.581Z,52.54
2018-05-31T13:10:14.380Z,51.44
2018-05-31T13:12:42.738Z,50.91
2018-05-31T13:15:11.114Z,51.66
2018-05-31T13:17:39.503Z,52.30
2018-05-31T13:20:07.803Z,52.06
